Time;durP1;ratioP1;P1;durP2;ratioP2;P2;SDS_P1;SDS_P2;PMS_P1;PMS_P2;Temp;Humidity;BMP_temperature;BMP_pressure;BME280_temperature;BME280_humidity;BME280_pressure;Samples;Min_cycle;Max_cycle;Signal;HPM_P1;HPM_P2
2024/03/25 00:01:16;;;;;;;33.90;8.25;;;;;;;;;;4966931;28;25074;-70
2024/03/25 00:03:42;;;;;;;35.65;8.15;;;;;;;;;;4965403;28;25085;-72
2024/03/25 00:06:08;;;;;;;39.60;8.15;;;;;;;;;;4965920;28;25057;-72
2024/03/25 00:08:34;;;;;;;28.13;6.85;;;;;;;;;;4966051;28;25074;-72
2024/03/25 00:11:00;;;;;;;33.72;7.95;;;;;;;;;;4967701;28;25138;-71
2024/03/25 00:13:26;;;;;;;27.45;6.95;;;;;;;;;;4964153;28;25048;-72
2024/03/25 00:15:52;;;;;;;36.22;8.68;;;;;;;;;;4964557;28;25107;-71
2024/03/25 00:18:18;;;;;;;32.10;7.35;;;;;;;;;;4963629;28;25067;-72
2024/03/25 00:20:44;;;;;;;31.73;8.05;;;;;;;;;;4968267;28;25057;-72
2024/03/25 00:23:11;;;;;;;31.00;7.38;;;;;;;;;;4966151;28;25083;-72
2024/03/25 00:25:37;;;;;;;33.47;8.65;;;;;;;;;;4963859;28;25127;-72
2024/03/25 00:28:04;;;;;;;31.52;7.55;;;;;;;;;;4962908;28;25119;-72
2024/03/25 00:30:30;;;;;;;31.88;7.30;;;;;;;;;;4966873;28;25117;-71
2024/03/25 00:32:56;;;;;;;33.55;7.50;;;;;;;;;;4959717;28;25091;-70
2024/03/25 00:35:23;;;;;;;31.23;6.95;;;;;;;;;;4966735;28;25089;-72
2024/03/25 00:37:49;;;;;;;22.33;7.32;;;;;;;;;;4953565;28;25066;-71
2024/03/25 00:40:15;;;;;;;40.58;7.80;;;;;;;;;;4967367;28;25096;-72
2024/03/25 00:42:41;;;;;;;32.50;7.28;;;;;;;;;;4964932;28;25080;-70
2024/03/25 00:45:07;;;;;;;27.02;8.25;;;;;;;;;;4963755;28;25061;-72
2024/03/25 00:47:33;;;;;;;28.05;8.88;;;;;;;;;;4964194;28;25117;-72
2024/03/25 00:49:59;;;;;;;32.72;7.80;;;;;;;;;;4966631;28;25068;-72
2024/03/25 00:52:25;;;;;;;40.88;7.63;;;;;;;;;;4964515;28;25105;-71
2024/03/25 00:54:52;;;;;;;34.72;7.38;;;;;;;;;;4960701;28;25135;-72
2024/03/25 00:57:18;;;;;;;29.50;7.68;;;;;;;;;;4958237;28;25055;-70
2024/03/25 00:59:44;;;;;;;31.10;7.45;;;;;;;;;;4959254;28;25078;-70
2024/03/25 01:02:10;;;;;;;30.40;7.15;;;;;;;;;;4967228;28;25063;-73
2024/03/25 01:04:36;;;;;;;23.27;6.72;;;;;;;;;;4960234;28;25066;-71
2024/03/25 01:07:03;;;;;;;31.92;7.78;;;;;;;;;;4963643;28;25056;-70
2024/03/25 01:09:29;;;;;;;25.50;6.88;;;;;;;;;;4964112;28;25080;-72
2024/03/25 01:11:55;;;;;;;26.83;6.68;;;;;;;;;;4962870;28;25070;-72
2024/03/25 01:14:21;;;;;;;28.75;6.85;;;;;;;;;;4963403;28;25059;-72
2024/03/25 01:16:47;;;;;;;32.35;8.02;;;;;;;;;;4983481;28;25046;-71
2024/03/25 01:19:13;;;;;;;30.25;7.40;;;;;;;;;;4963816;28;25064;-71
2024/03/25 01:21:39;;;;;;;38.67;6.13;;;;;;;;;;4966849;28;25055;-72
2024/03/25 01:24:05;;;;;;;33.00;6.55;;;;;;;;;;4963163;28;25048;-70
2024/03/25 01:26:31;;;;;;;24.48;7.28;;;;;;;;;;4959233;28;25096;-71
2024/03/25 01:28:57;;;;;;;28.85;5.68;;;;;;;;;;4964639;28;25051;-72
2024/03/25 01:31:23;;;;;;;26.20;6.20;;;;;;;;;;4957738;28;25090;-73
2024/03/25 01:33:49;;;;;;;28.85;6.43;;;;;;;;;;4966869;28;25065;-70
2024/03/25 01:36:17;;;;;;;24.02;5.93;;;;;;;;;;4968162;28;25105;-70
2024/03/25 01:38:43;;;;;;;28.63;6.15;;;;;;;;;;4967467;28;25086;-72
2024/03/25 01:41:10;;;;;;;29.63;6.35;;;;;;;;;;4970855;28;25082;-71
2024/03/25 01:43:37;;;;;;;32.47;6.40;;;;;;;;;;4968296;28;25076;-71
2024/03/25 01:46:03;;;;;;;30.15;6.32;;;;;;;;;;4965796;28;25070;-72
2024/03/25 01:48:29;;;;;;;29.50;5.70;;;;;;;;;;4961210;28;25069;-72
2024/03/25 01:50:55;;;;;;;21.73;5.95;;;;;;;;;;4967120;28;25064;-70
2024/03/25 01:53:21;;;;;;;24.27;5.97;;;;;;;;;;4964363;28;25131;-71
2024/03/25 01:55:49;;;;;;;28.83;6.18;;;;;;;;;;4957834;28;25388;-71
2024/03/25 01:58:15;;;;;;;27.88;5.85;;;;;;;;;;4963710;28;25604;-70
2024/03/25 02:00:41;;;;;;;28.38;5.70;;;;;;;;;;4963182;28;25066;-71
2024/03/25 02:03:08;;;;;;;30.85;6.57;;;;;;;;;;4962508;28;25052;-71
2024/03/25 02:05:35;;;;;;;27.15;5.82;;;;;;;;;;4956647;28;25060;-71
2024/03/25 02:08:01;;;;;;;18.65;5.95;;;;;;;;;;4970079;28;25068;-71
2024/03/25 02:10:28;;;;;;;27.23;5.97;;;;;;;;;;4965624;28;25074;-70
2024/03/25 02:12:54;;;;;;;26.15;6.28;;;;;;;;;;4970600;28;25167;-71
2024/03/25 02:15:20;;;;;;;29.67;6.40;;;;;;;;;;4989203;28;25114;-72
2024/03/25 02:17:46;;;;;;;27.70;6.80;;;;;;;;;;4969079;28;25068;-72
2024/03/25 02:20:15;;;;;;;24.50;6.10;;;;;;;;;;4975457;28;25063;-71
2024/03/25 02:22:42;;;;;;;31.40;6.90;;;;;;;;;;4970089;28;25070;-70
2024/03/25 02:25:09;;;;;;;23.27;5.97;;;;;;;;;;4971421;28;25164;-70
2024/03/25 02:27:35;;;;;;;27.63;7.07;;;;;;;;;;4969675;28;25101;-71
2024/03/25 02:30:02;;;;;;;30.25;6.53;;;;;;;;;;4968317;28;25063;-70
2024/03/25 02:32:29;;;;;;;33.17;7.15;;;;;;;;;;4965989;28;25068;-71
2024/03/25 02:34:55;;;;;;;29.95;8.05;;;;;;;;;;4973480;28;25155;-72
2024/03/25 02:37:22;;;;;;;28.10;6.78;;;;;;;;;;4963877;28;25044;-70
2024/03/25 02:39:48;;;;;;;26.60;6.28;;;;;;;;;;4965237;28;25078;-71
2024/03/25 02:42:14;;;;;;;24.20;7.43;;;;;;;;;;4967434;28;25061;-71
2024/03/25 02:44:43;;;;;;;32.03;7.75;;;;;;;;;;4972918;28;25054;-72
2024/03/25 02:47:09;;;;;;;26.55;7.22;;;;;;;;;;4962503;28;25096;-72
2024/03/25 02:49:35;;;;;;;27.52;7.57;;;;;;;;;;4960208;28;25062;-73
2024/03/25 02:52:01;;;;;;;27.80;8.50;;;;;;;;;;4967767;28;25067;-71
2024/03/25 02:54:27;;;;;;;29.33;8.25;;;;;;;;;;4971394;28;25089;-71
2024/03/25 02:56:53;;;;;;;27.27;8.43;;;;;;;;;;4962911;28;25056;-71
2024/03/25 02:59:19;;;;;;;36.00;8.18;;;;;;;;;;4966811;28;25156;-71
2024/03/25 03:01:45;;;;;;;27.88;8.13;;;;;;;;;;4969997;28;25075;-68
2024/03/25 03:04:11;;;;;;;35.50;7.90;;;;;;;;;;4959883;28;25131;-71
2024/03/25 03:06:37;;;;;;;31.08;8.00;;;;;;;;;;4970304;28;25087;-71
2024/03/25 03:09:03;;;;;;;23.50;7.00;;;;;;;;;;4965801;28;25050;-71
2024/03/25 03:11:29;;;;;;;38.88;9.32;;;;;;;;;;4962106;28;25056;-70
2024/03/25 03:13:55;;;;;;;31.23;8.32;;;;;;;;;;4965178;28;25064;-71
2024/03/25 03:16:21;;;;;;;31.80;7.72;;;;;;;;;;4960873;28;25150;-70
2024/03/25 03:18:47;;;;;;;31.92;7.30;;;;;;;;;;4964341;28;25090;-71
2024/03/25 03:21:13;;;;;;;32.78;8.05;;;;;;;;;;4967937;28;25049;-71
2024/03/25 03:23:39;;;;;;;27.98;7.60;;;;;;;;;;4962460;28;25143;-70
2024/03/25 03:26:05;;;;;;;33.17;7.65;;;;;;;;;;4965656;28;25059;-72
2024/03/25 03:28:31;;;;;;;32.08;8.45;;;;;;;;;;4964392;28;25091;-73
2024/03/25 03:30:57;;;;;;;30.42;7.75;;;;;;;;;;4965563;28;25081;-73
2024/03/25 03:33:23;;;;;;;32.53;7.65;;;;;;;;;;4964826;28;25172;-70
2024/03/25 03:35:50;;;;;;;27.13;8.25;;;;;;;;;;4965222;28;25073;-70
2024/03/25 03:38:16;;;;;;;34.58;8.07;;;;;;;;;;4962285;28;25108;-72
2024/03/25 03:40:42;;;;;;;25.60;8.07;;;;;;;;;;4962957;28;25141;-72
2024/03/25 03:43:08;;;;;;;31.35;7.50;;;;;;;;;;4962683;28;25072;-71
2024/03/25 03:45:37;;;;;;;28.30;7.85;;;;;;;;;;4966685;28;25072;-71
2024/03/25 03:48:03;;;;;;;27.65;7.10;;;;;;;;;;4967167;28;25178;-70
2024/03/25 03:50:29;;;;;;;20.33;6.68;;;;;;;;;;4970589;28;25064;-70
2024/03/25 03:52:55;;;;;;;25.83;6.82;;;;;;;;;;4968404;28;25061;-70
2024/03/25 03:55:21;;;;;;;26.67;7.22;;;;;;;;;;4963843;28;25109;-71
2024/03/25 03:57:48;;;;;;;30.52;7.35;;;;;;;;;;4960578;28;25068;-71
2024/03/25 04:00:14;;;;;;;24.98;8.10;;;;;;;;;;4959087;28;25145;-71
2024/03/25 04:02:40;;;;;;;22.92;8.40;;;;;;;;;;4959695;28;25092;-70
2024/03/25 04:05:06;;;;;;;33.95;7.75;;;;;;;;;;4959527;28;25095;-71
2024/03/25 04:07:32;;;;;;;20.27;7.63;;;;;;;;;;4960920;28;25095;-71
2024/03/25 04:10:03;;;;;;;29.45;7.22;;;;;;;;;;4966154;28;25086;-70
2024/03/25 04:12:29;;;;;;;31.98;8.77;;;;;;;;;;4957753;28;25127;-72
2024/03/25 04:14:56;;;;;;;31.63;8.43;;;;;;;;;;4960106;28;25068;-70
2024/03/25 04:17:22;;;;;;;36.70;9.25;;;;;;;;;;4963686;28;25099;-71
2024/03/25 04:19:50;;;;;;;28.02;8.18;;;;;;;;;;4967216;28;25088;-69
2024/03/25 04:22:16;;;;;;;38.25;7.80;;;;;;;;;;4963280;28;25068;-71
2024/03/25 04:24:43;;;;;;;26.13;7.15;;;;;;;;;;4962957;28;25076;-71
2024/03/25 04:27:09;;;;;;;24.88;7.10;;;;;;;;;;4966162;28;25158;-72
2024/03/25 04:29:35;;;;;;;39.80;9.68;;;;;;;;;;4964697;28;25161;-72
2024/03/25 04:32:02;;;;;;;23.38;6.85;;;;;;;;;;4969833;28;25101;-70
2024/03/25 04:34:28;;;;;;;28.70;8.90;;;;;;;;;;4971772;28;25094;-71
2024/03/25 04:36:53;;;;;;;20.65;6.80;;;;;;;;;;4963165;28;25175;-71
2024/03/25 04:39:20;;;;;;;37.60;8.95;;;;;;;;;;4963879;28;25068;-72
2024/03/25 04:41:46;;;;;;;26.73;7.28;;;;;;;;;;4973444;28;25079;-72
2024/03/25 04:44:12;;;;;;;23.70;7.07;;;;;;;;;;4964559;28;25065;-70
2024/03/25 04:46:38;;;;;;;22.05;7.22;;;;;;;;;;4967948;28;25077;-71
2024/03/25 04:49:04;;;;;;;29.73;8.23;;;;;;;;;;4965387;28;25131;-72
2024/03/25 04:51:31;;;;;;;33.08;8.48;;;;;;;;;;4968659;28;25089;-72
2024/03/25 04:53:57;;;;;;;28.25;7.60;;;;;;;;;;4964041;28;25056;-72
2024/03/25 04:56:23;;;;;;;34.80;8.52;;;;;;;;;;4966881;28;25083;-71
2024/03/25 04:58:49;;;;;;;23.08;8.25;;;;;;;;;;4961961;28;25121;-72
2024/03/25 05:01:15;;;;;;;26.10;8.18;;;;;;;;;;4966975;28;25062;-71
2024/03/25 05:03:41;;;;;;;26.23;7.03;;;;;;;;;;4958187;28;25053;-71
2024/03/25 05:06:11;;;;;;;26.35;7.93;;;;;;;;;;4958484;28;25127;-72
2024/03/25 05:08:37;;;;;;;18.27;7.85;;;;;;;;;;4968337;28;25071;-72
2024/03/25 05:11:03;;;;;;;36.72;8.45;;;;;;;;;;4962799;28;25128;-71
2024/03/25 05:13:29;;;;;;;31.05;9.02;;;;;;;;;;4961190;28;25162;-71
2024/03/25 05:15:55;;;;;;;23.40;6.95;;;;;;;;;;4971842;28;25058;-71
2024/03/25 05:18:21;;;;;;;33.75;9.50;;;;;;;;;;4970994;28;25073;-72
2024/03/25 05:20:47;;;;;;;24.50;8.13;;;;;;;;;;4967032;28;25096;-72
2024/03/25 05:23:13;;;;;;;36.85;8.90;;;;;;;;;;4960938;28;25111;-71
2024/03/25 05:25:40;;;;;;;32.50;9.80;;;;;;;;;;4969247;28;25079;-72
2024/03/25 05:28:07;;;;;;;29.48;9.10;;;;;;;;;;4968291;28;25100;-72
2024/03/25 05:30:33;;;;;;;32.42;8.43;;;;;;;;;;4971857;28;25064;-71
2024/03/25 05:32:59;;;;;;;22.40;8.07;;;;;;;;;;4969345;28;25070;-72
2024/03/25 05:35:25;;;;;;;28.38;8.50;;;;;;;;;;4965089;28;25071;-73
2024/03/25 05:37:51;;;;;;;32.55;9.40;;;;;;;;;;4966586;28;25062;-73
2024/03/25 05:40:17;;;;;;;28.85;8.00;;;;;;;;;;4963924;28;25143;-73
2024/03/25 05:42:46;;;;;;;20.77;8.27;;;;;;;;;;4974356;28;25068;-75
2024/03/25 05:45:12;;;;;;;28.15;8.63;;;;;;;;;;4979339;28;25098;-73
2024/03/25 05:47:38;;;;;;;26.65;8.20;;;;;;;;;;4978062;28;25097;-73
2024/03/25 05:50:05;;;;;;;28.20;8.80;;;;;;;;;;4975627;28;25056;-72
2024/03/25 05:52:31;;;;;;;40.53;10.65;;;;;;;;;;4975458;28;25063;-72
2024/03/25 05:54:57;;;;;;;27.15;8.82;;;;;;;;;;4973320;28;25171;-73
2024/03/25 05:57:23;;;;;;;26.85;9.20;;;;;;;;;;4976657;28;25084;-73
2024/03/25 05:59:49;;;;;;;32.42;11.95;;;;;;;;;;4975230;28;25105;-71
2024/03/25 06:02:15;;;;;;;35.35;10.25;;;;;;;;;;4979619;28;25111;-73
2024/03/25 06:04:41;;;;;;;33.05;9.73;;;;;;;;;;4975217;28;25077;-74
2024/03/25 06:07:08;;;;;;;28.30;11.02;;;;;;;;;;4973720;28;25136;-75
2024/03/25 06:09:34;;;;;;;38.47;12.90;;;;;;;;;;4966188;28;25069;-76
2024/03/25 06:12:01;;;;;;;39.05;13.07;;;;;;;;;;4967099;28;25056;-73
2024/03/25 06:14:27;;;;;;;33.85;13.18;;;;;;;;;;4966140;28;25126;-74
2024/03/25 06:16:53;;;;;;;32.55;13.77;;;;;;;;;;4954641;28;25063;-72
2024/03/25 06:19:19;;;;;;;37.67;15.25;;;;;;;;;;4965250;28;25094;-74
2024/03/25 06:21:45;;;;;;;36.15;16.92;;;;;;;;;;4966192;28;25157;-74
2024/03/25 06:24:11;;;;;;;36.47;14.40;;;;;;;;;;4969623;28;25131;-75
2024/03/25 06:26:40;;;;;;;38.47;15.23;;;;;;;;;;4969086;28;25075;-76
2024/03/25 06:29:06;;;;;;;45.70;17.50;;;;;;;;;;4966814;28;25076;-73
2024/03/25 06:34:18;;;;;;;31.90;15.23;;;;;;;;;;4972232;28;25060;-74
2024/03/25 06:36:47;;;;;;;39.65;19.10;;;;;;;;;;4966453;28;25062;-74
2024/03/25 06:39:13;;;;;;;48.85;21.67;;;;;;;;;;4975499;28;25130;-73
2024/03/25 06:41:39;;;;;;;44.88;22.05;;;;;;;;;;4969876;28;25089;-72
2024/03/25 06:44:05;;;;;;;42.33;22.08;;;;;;;;;;4973199;28;25064;-73
2024/03/25 06:46:32;;;;;;;49.55;24.02;;;;;;;;;;4967843;28;25070;-73
2024/03/25 06:48:58;;;;;;;58.95;27.52;;;;;;;;;;4966097;28;25116;-72
2024/03/25 06:51:24;;;;;;;48.33;24.05;;;;;;;;;;4961042;28;25112;-72
2024/03/25 06:53:50;;;;;;;43.92;24.15;;;;;;;;;;4963209;28;25072;-73
2024/03/25 06:56:16;;;;;;;40.13;22.77;;;;;;;;;;4975143;28;25049;-73
2024/03/25 06:58:43;;;;;;;35.67;17.98;;;;;;;;;;4965763;28;25134;-74
2024/03/25 07:01:09;;;;;;;41.42;19.50;;;;;;;;;;4963145;28;25084;-72
2024/03/25 07:03:36;;;;;;;45.78;23.55;;;;;;;;;;4967241;28;25144;-73
2024/03/25 07:06:02;;;;;;;50.63;22.83;;;;;;;;;;4962354;28;25088;-72
2024/03/25 07:08:30;;;;;;;40.55;22.25;;;;;;;;;;4968618;28;25094;-72
2024/03/25 07:10:56;;;;;;;44.53;21.58;;;;;;;;;;4953895;28;25065;-72
2024/03/25 07:13:22;;;;;;;44.83;22.85;;;;;;;;;;4963629;28;25060;-74
2024/03/25 07:15:48;;;;;;;42.90;22.05;;;;;;;;;;4978664;28;25114;-73
2024/03/25 07:18:14;;;;;;;37.85;21.38;;;;;;;;;;4970088;28;25101;-72
2024/03/25 07:20:40;;;;;;;35.58;19.98;;;;;;;;;;4965632;28;25083;-70
2024/03/25 07:23:06;;;;;;;37.38;19.50;;;;;;;;;;4964927;28;25082;-73
2024/03/25 07:25:32;;;;;;;33.67;18.85;;;;;;;;;;4972572;28;25054;-73
2024/03/25 07:27:58;;;;;;;38.15;19.65;;;;;;;;;;4965998;28;25084;-73
2024/03/25 07:30:28;;;;;;;33.03;17.92;;;;;;;;;;4965494;28;25091;-74
2024/03/25 07:32:54;;;;;;;39.83;19.23;;;;;;;;;;4962118;28;25061;-72
2024/03/25 07:35:20;;;;;;;34.15;17.83;;;;;;;;;;4964379;28;25149;-73
2024/03/25 07:37:46;;;;;;;34.67;19.92;;;;;;;;;;4966548;28;25071;-71
2024/03/25 07:40:12;;;;;;;30.98;18.50;;;;;;;;;;4959238;28;25078;-73
2024/03/25 07:42:38;;;;;;;35.70;20.45;;;;;;;;;;4970065;28;25152;-75
2024/03/25 07:45:05;;;;;;;28.83;17.40;;;;;;;;;;4951814;28;25076;-74
2024/03/25 07:47:31;;;;;;;33.67;17.67;;;;;;;;;;4962908;28;25068;-73
2024/03/25 07:49:59;;;;;;;33.88;18.85;;;;;;;;;;4955668;28;25053;-74
2024/03/25 07:52:25;;;;;;;37.20;19.05;;;;;;;;;;4971270;28;25095;-74
2024/03/25 07:54:51;;;;;;;31.98;19.25;;;;;;;;;;4963011;28;25100;-74
2024/03/25 07:57:19;;;;;;;30.27;18.00;;;;;;;;;;4963138;28;25069;-73
2024/03/25 07:59:45;;;;;;;30.90;17.98;;;;;;;;;;4972783;28;25134;-75
2024/03/25 08:02:11;;;;;;;38.08;19.58;;;;;;;;;;4955335;28;25066;-74
2024/03/25 08:04:37;;;;;;;30.40;17.08;;;;;;;;;;4962093;28;25095;-75
2024/03/25 08:07:03;;;;;;;28.27;16.73;;;;;;;;;;4964387;28;25064;-75
2024/03/25 08:09:29;;;;;;;34.00;18.25;;;;;;;;;;4974230;28;24918;-73
2024/03/25 08:11:55;;;;;;;31.52;19.42;;;;;;;;;;4959639;28;25080;-71
2024/03/25 08:14:22;;;;;;;34.75;18.75;;;;;;;;;;4963241;28;25060;-72
2024/03/25 08:16:48;;;;;;;33.75;18.10;;;;;;;;;;4963552;28;25059;-74
2024/03/25 08:19:14;;;;;;;35.25;17.77;;;;;;;;;;4962090;28;25137;-74
2024/03/25 08:21:40;;;;;;;31.85;18.38;;;;;;;;;;4962572;28;25063;-74
2024/03/25 08:24:06;;;;;;;33.95;18.15;;;;;;;;;;4956714;28;25161;-74
2024/03/25 08:26:32;;;;;;;35.15;19.80;;;;;;;;;;4964002;28;25043;-75
2024/03/25 08:28:58;;;;;;;29.13;17.88;;;;;;;;;;4966666;28;25064;-75
2024/03/25 08:31:24;;;;;;;31.42;20.08;;;;;;;;;;4958279;28;25177;-75
2024/03/25 08:33:50;;;;;;;40.28;19.40;;;;;;;;;;4956368;28;25064;-74
2024/03/25 08:36:16;;;;;;;33.13;19.38;;;;;;;;;;4959023;28;25205;-74
2024/03/25 08:38:42;;;;;;;38.47;19.13;;;;;;;;;;4958241;28;25078;-74
2024/03/25 08:41:08;;;;;;;32.97;19.02;;;;;;;;;;4970986;28;25068;-75
2024/03/25 08:43:34;;;;;;;38.30;18.67;;;;;;;;;;4970295;28;25062;-74
2024/03/25 08:46:01;;;;;;;30.92;18.50;;;;;;;;;;4958486;28;25076;-75
2024/03/25 08:48:27;;;;;;;35.33;18.88;;;;;;;;;;4964213;28;25116;-73
2024/03/25 08:50:53;;;;;;;32.28;19.25;;;;;;;;;;4971430;28;25045;-74
2024/03/25 08:53:19;;;;;;;33.15;19.63;;;;;;;;;;4967564;28;25079;-74
2024/03/25 08:55:48;;;;;;;44.00;20.40;;;;;;;;;;4972453;28;25178;-74
2024/03/25 08:58:15;;;;;;;43.65;21.90;;;;;;;;;;4956086;28;25110;-75
2024/03/25 09:00:41;;;;;;;39.92;23.20;;;;;;;;;;4970314;28;25069;-75
2024/03/25 09:03:08;;;;;;;45.10;23.83;;;;;;;;;;4953968;28;25054;-76
2024/03/25 09:05:34;;;;;;;37.60;22.88;;;;;;;;;;4966328;28;25069;-74
2024/03/25 09:08:00;;;;;;;38.78;22.90;;;;;;;;;;4961564;28;25059;-74
2024/03/25 09:13:11;;;;;;;45.33;22.83;;;;;;;;;;4965203;28;25109;-75
2024/03/25 09:15:37;;;;;;;40.80;24.13;;;;;;;;;;4976631;28;25077;-74
2024/03/25 09:18:03;;;;;;;45.72;27.42;;;;;;;;;;4971161;28;25060;-75
2024/03/25 09:20:29;;;;;;;44.92;25.33;;;;;;;;;;4984893;28;25087;-74
2024/03/25 09:22:55;;;;;;;41.08;25.17;;;;;;;;;;4973391;28;25084;-75
2024/03/25 09:25:21;;;;;;;50.33;26.60;;;;;;;;;;4984876;28;25096;-72
2024/03/25 09:27:48;;;;;;;48.42;28.40;;;;;;;;;;4977100;28;25081;-73
2024/03/25 09:30:14;;;;;;;52.83;29.65;;;;;;;;;;4966003;28;25081;-74
2024/03/25 09:32:41;;;;;;;55.58;28.67;;;;;;;;;;4973963;28;25055;-74
2024/03/25 09:35:07;;;;;;;52.33;30.67;;;;;;;;;;4971333;28;25084;-73
2024/03/25 09:37:33;;;;;;;50.03;28.95;;;;;;;;;;4961323;28;25057;-75
2024/03/25 09:39:59;;;;;;;47.22;29.67;;;;;;;;;;4961666;28;25137;-73
2024/03/25 09:42:44;;;;;;;47.90;29.42;;;;;;;;;;4968551;28;25081;-73
2024/03/25 09:45:11;;;;;;;50.90;29.58;;;;;;;;;;4966655;28;25118;-72
2024/03/25 09:47:38;;;;;;;49.35;28.02;;;;;;;;;;4972468;28;25061;-75
2024/03/25 09:50:08;;;;;;;55.65;31.05;;;;;;;;;;4974668;28;25058;-74
2024/03/25 09:52:34;;;;;;;61.33;29.55;;;;;;;;;;4969353;28;25082;-74
2024/03/25 09:55:00;;;;;;;48.80;28.55;;;;;;;;;;4968865;28;25104;-74
2024/03/25 09:57:26;;;;;;;41.35;24.73;;;;;;;;;;4966102;28;25156;-74
2024/03/25 09:59:53;;;;;;;46.97;27.63;;;;;;;;;;4962575;28;25070;-74
2024/03/25 10:02:19;;;;;;;40.90;25.00;;;;;;;;;;4960178;28;25074;-75
2024/03/25 10:04:49;;;;;;;40.92;24.42;;;;;;;;;;4961382;28;25177;-73
2024/03/25 10:07:24;;;;;;;38.50;22.73;;;;;;;;;;4965524;28;25053;-74
2024/03/25 10:09:50;;;;;;;38.67;21.73;;;;;;;;;;4969343;28;25067;-75
2024/03/25 10:12:16;;;;;;;40.95;21.38;;;;;;;;;;4974463;28;25052;-76
2024/03/25 10:14:42;;;;;;;35.45;19.98;;;;;;;;;;4965468;28;25179;-74
2024/03/25 10:17:09;;;;;;;30.48;19.52;;;;;;;;;;4968444;28;25094;-76
2024/03/25 10:19:35;;;;;;;27.52;18.90;;;;;;;;;;4970620;28;25065;-73
2024/03/25 10:22:08;;;;;;;34.70;19.58;;;;;;;;;;4967439;28;25096;-74
2024/03/25 10:24:40;;;;;;;32.80;19.77;;;;;;;;;;4973781;28;25098;-73
2024/03/25 10:27:06;;;;;;;28.08;17.98;;;;;;;;;;4975301;28;25066;-74
2024/03/25 10:29:32;;;;;;;35.72;19.38;;;;;;;;;;4970570;28;25133;-74
2024/03/25 10:32:04;;;;;;;32.22;18.80;;;;;;;;;;4965464;28;25071;-73
2024/03/25 10:34:30;;;;;;;34.80;18.38;;;;;;;;;;4971333;28;25148;-73
2024/03/25 10:36:58;;;;;;;34.08;17.30;;;;;;;;;;4965587;28;25132;-73
2024/03/25 10:39:26;;;;;;;28.00;17.67;;;;;;;;;;4967754;28;25054;-73
2024/03/25 10:41:54;;;;;;;32.10;16.98;;;;;;;;;;4966046;28;25070;-74
2024/03/25 10:44:20;;;;;;;34.25;18.45;;;;;;;;;;4960862;28;25117;-73
2024/03/25 10:46:46;;;;;;;30.17;17.98;;;;;;;;;;4966689;28;25074;-75
2024/03/25 10:49:42;;;;;;;28.02;16.15;;;;;;;;;;4968215;28;25107;-74
2024/03/25 10:52:08;;;;;;;31.73;16.58;;;;;;;;;;4972454;28;25079;-74
2024/03/25 10:54:34;;;;;;;30.17;17.13;;;;;;;;;;4971568;28;25168;-73
2024/03/25 10:57:00;;;;;;;30.75;16.63;;;;;;;;;;4971721;28;25066;-74
2024/03/25 10:59:27;;;;;;;31.27;18.65;;;;;;;;;;4974068;28;25061;-74
2024/03/25 11:01:54;;;;;;;29.48;17.88;;;;;;;;;;4967565;28;25064;-74
2024/03/25 11:04:21;;;;;;;34.95;18.25;;;;;;;;;;4970064;28;25076;-74
2024/03/25 11:06:47;;;;;;;24.30;14.40;;;;;;;;;;4963512;28;25172;-75
2024/03/25 11:09:25;;;;;;;26.83;14.55;;;;;;;;;;4964473;28;25078;-75
2024/03/25 11:11:52;;;;;;;22.95;11.98;;;;;;;;;;4964996;28;25093;-74
2024/03/25 11:14:18;;;;;;;22.38;12.98;;;;;;;;;;4957576;28;25149;-75
2024/03/25 11:16:44;;;;;;;21.60;12.93;;;;;;;;;;4967830;28;25059;-75
2024/03/25 11:19:11;;;;;;;18.13;11.27;;;;;;;;;;4966372;28;25049;-73
2024/03/25 11:21:37;;;;;;;23.65;10.73;;;;;;;;;;4970393;28;25079;-74
2024/03/25 11:24:07;;;;;;;23.80;11.27;;;;;;;;;;4967683;28;25071;-75
2024/03/25 11:26:35;;;;;;;20.58;9.00;;;;;;;;;;4956685;28;25075;-75
2024/03/25 11:29:01;;;;;;;15.63;6.80;;;;;;;;;;4965573;28;25072;-76
2024/03/25 11:31:27;;;;;;;12.82;5.70;;;;;;;;;;4963368;28;25063;-75
2024/03/25 11:33:54;;;;;;;12.65;5.95;;;;;;;;;;4974526;28;25059;-75
2024/03/25 11:36:25;;;;;;;9.93;4.93;;;;;;;;;;4964053;28;25054;-75
2024/03/25 11:39:04;;;;;;;14.80;6.43;;;;;;;;;;4976254;28;25102;-76
2024/03/25 11:41:33;;;;;;;10.98;5.68;;;;;;;;;;4961926;28;25073;-75
2024/03/25 11:43:59;;;;;;;14.52;6.32;;;;;;;;;;4973103;28;25101;-74
2024/03/25 11:46:26;;;;;;;16.95;6.07;;;;;;;;;;4971892;28;25057;-75
2024/03/25 11:48:52;;;;;;;12.40;5.32;;;;;;;;;;4968510;28;25076;-75
2024/03/25 11:51:18;;;;;;;14.55;5.80;;;;;;;;;;4962151;28;25075;-75
2024/03/25 11:53:44;;;;;;;9.43;5.07;;;;;;;;;;4969913;28;25051;-76
2024/03/25 11:56:11;;;;;;;8.55;4.80;;;;;;;;;;4973490;28;25066;-76
2024/03/25 11:58:41;;;;;;;15.27;4.75;;;;;;;;;;4979588;28;25073;-75
2024/03/25 12:01:10;;;;;;;11.25;4.82;;;;;;;;;;4981022;28;25076;-75
2024/03/25 12:03:36;;;;;;;12.52;4.88;;;;;;;;;;4967434;28;25068;-76
2024/03/25 12:06:02;;;;;;;8.02;3.60;;;;;;;;;;4967377;28;25145;-76
2024/03/25 12:08:30;;;;;;;8.30;3.83;;;;;;;;;;4970346;28;25080;-74
2024/03/25 12:13:42;;;;;;;10.40;4.32;;;;;;;;;;4960479;28;25077;-75
2024/03/25 12:16:08;;;;;;;5.97;3.85;;;;;;;;;;4963140;28;25061;-77
2024/03/25 12:18:35;;;;;;;8.10;3.45;;;;;;;;;;4965910;28;25083;-75
2024/03/25 12:21:02;;;;;;;6.03;3.35;;;;;;;;;;4964497;28;25101;-76
2024/03/25 12:23:33;;;;;;;8.82;5.05;;;;;;;;;;4960245;28;25166;-77
2024/03/25 12:26:05;;;;;;;13.95;4.38;;;;;;;;;;4967241;28;25176;-75
2024/03/25 12:28:35;;;;;;;10.95;4.40;;;;;;;;;;4959420;28;25075;-76
2024/03/25 12:31:01;;;;;;;11.38;5.60;;;;;;;;;;4968965;28;25073;-76
2024/03/25 12:33:27;;;;;;;10.68;5.18;;;;;;;;;;4968076;28;25069;-77
2024/03/25 12:35:54;;;;;;;12.10;4.63;;;;;;;;;;4967097;28;25105;-76
2024/03/25 12:38:23;;;;;;;10.52;4.10;;;;;;;;;;4963311;28;25060;-75
2024/03/25 12:40:50;;;;;;;10.60;4.32;;;;;;;;;;4965937;28;25059;-76
2024/03/25 12:43:16;;;;;;;7.00;3.85;;;;;;;;;;4966955;28;25074;-76
2024/03/25 12:45:45;;;;;;;9.57;4.50;;;;;;;;;;4967319;28;25146;-77
2024/03/25 12:48:11;;;;;;;9.57;4.45;;;;;;;;;;4972199;28;25094;-78
2024/03/25 12:50:39;;;;;;;9.93;4.28;;;;;;;;;;4970883;28;25073;-78
2024/03/25 12:53:05;;;;;;;10.38;4.32;;;;;;;;;;4966530;28;25102;-78
2024/03/25 12:55:31;;;;;;;7.13;3.88;;;;;;;;;;4965856;28;25047;-75
2024/03/25 12:57:57;;;;;;;7.55;3.40;;;;;;;;;;4971596;28;25103;-78
2024/03/25 13:00:23;;;;;;;6.88;3.63;;;;;;;;;;4967139;28;25080;-76
2024/03/25 13:02:50;;;;;;;6.97;3.88;;;;;;;;;;4971791;28;25055;-77
2024/03/25 13:05:16;;;;;;;12.27;6.15;;;;;;;;;;4990083;28;25079;-78
2024/03/25 13:07:42;;;;;;;10.20;4.65;;;;;;;;;;4973177;28;25063;-80
2024/03/25 13:10:08;;;;;;;9.80;4.20;;;;;;;;;;4977055;28;25077;-79
2024/03/25 13:12:34;;;;;;;12.95;4.50;;;;;;;;;;4982508;28;25074;-77
2024/03/25 13:15:00;;;;;;;6.25;3.88;;;;;;;;;;4980911;28;25110;-78
2024/03/25 13:17:26;;;;;;;6.10;4.05;;;;;;;;;;4968407;28;25069;-77
2024/03/25 13:19:52;;;;;;;9.15;4.10;;;;;;;;;;4964595;28;25092;-77
2024/03/25 13:22:18;;;;;;;7.30;3.90;;;;;;;;;;4970787;28;25069;-78
2024/03/25 13:24:45;;;;;;;8.40;4.43;;;;;;;;;;4982150;28;25057;-77
2024/03/25 13:27:10;;;;;;;7.22;3.80;;;;;;;;;;4983401;28;25071;-78
2024/03/25 13:29:37;;;;;;;6.07;3.63;;;;;;;;;;4987851;28;25057;-77
2024/03/25 13:32:03;;;;;;;7.15;3.53;;;;;;;;;;4978516;28;25109;-78
2024/03/25 13:34:29;;;;;;;7.50;3.65;;;;;;;;;;4983569;28;25096;-78
2024/03/25 13:36:55;;;;;;;6.47;3.38;;;;;;;;;;4969972;28;25085;-76
2024/03/25 13:39:21;;;;;;;9.88;3.63;;;;;;;;;;4973105;28;25059;-78
2024/03/25 13:41:48;;;;;;;7.30;4.05;;;;;;;;;;4967506;28;25073;-76
2024/03/25 13:44:14;;;;;;;12.02;3.92;;;;;;;;;;4970505;28;25087;-76
2024/03/25 13:46:40;;;;;;;10.38;3.97;;;;;;;;;;4971344;28;25080;-76
2024/03/25 13:49:06;;;;;;;9.68;4.30;;;;;;;;;;4965572;28;25141;-77
2024/03/25 13:51:32;;;;;;;9.93;3.53;;;;;;;;;;4967643;28;25061;-76
2024/03/25 13:53:59;;;;;;;9.88;4.43;;;;;;;;;;4966428;28;25167;-78
2024/03/25 13:56:25;;;;;;;9.25;4.38;;;;;;;;;;4962752;28;25074;-80
2024/03/25 13:58:51;;;;;;;8.85;3.80;;;;;;;;;;4960990;28;25140;-77
2024/03/25 14:01:17;;;;;;;9.57;3.92;;;;;;;;;;4965872;28;25078;-78
2024/03/25 14:03:43;;;;;;;8.82;3.97;;;;;;;;;;4962221;28;25063;-78
2024/03/25 14:06:09;;;;;;;7.13;3.60;;;;;;;;;;4965724;28;25090;-78
2024/03/25 14:08:35;;;;;;;8.80;3.47;;;;;;;;;;4960571;28;25108;-77
2024/03/25 14:11:02;;;;;;;6.63;3.33;;;;;;;;;;4969533;28;25067;-76
2024/03/25 14:13:29;;;;;;;10.27;3.72;;;;;;;;;;4964108;28;25047;-78
2024/03/25 14:15:55;;;;;;;8.20;3.47;;;;;;;;;;4969081;28;25048;-77
2024/03/25 14:18:20;;;;;;;10.18;3.67;;;;;;;;;;4966664;28;25136;-78
2024/03/25 14:20:47;;;;;;;8.43;3.20;;;;;;;;;;4970924;28;25072;-76
2024/03/25 14:23:13;;;;;;;6.88;3.40;;;;;;;;;;4966009;28;25119;-78
2024/03/25 14:25:39;;;;;;;8.23;3.55;;;;;;;;;;4967293;28;25073;-76
2024/03/25 14:28:05;;;;;;;8.45;3.60;;;;;;;;;;4969574;28;25087;-77
2024/03/25 14:30:31;;;;;;;6.70;3.78;;;;;;;;;;4969320;28;25051;-79